createdAt,value
2023-05-18T00:00:23.714Z,3.63
2023-05-18T00:00:55.624Z,3.60
2023-05-18T00:01:28.060Z,3.10
2023-05-18T00:02:01.191Z,3.60
2023-05-18T00:02:32.946Z,2.95
2023-05-18T00:03:04.840Z,3.30
2023-05-18T00:03:37.042Z,3.65
2023-05-18T00:04:10.165Z,3.38
2023-05-18T00:04:42.184Z,3.38
2023-05-18T00:05:14.223Z,3.53
2023-05-18T00:05:46.002Z,3.70
2023-05-18T00:06:17.722Z,3.80
2023-05-18T00:07:03.322Z,3.30
2023-05-18T00:07:34.988Z,3.37
2023-05-18T00:08:07.076Z,3.33
2023-05-18T00:08:39.667Z,3.53
2023-05-18T00:09:11.319Z,3.20
2023-05-18T00:09:43.485Z,3.08
2023-05-18T00:10:15.206Z,3.30
2023-05-18T00:10:47.013Z,3.05
2023-05-18T00:11:18.794Z,3.17
2023-05-18T00:11:51.148Z,3.33
2023-05-18T00:12:22.876Z,3.28
2023-05-18T00:12:54.694Z,2.87
2023-05-18T00:13:26.525Z,3.35
2023-05-18T00:13:58.196Z,2.90
2023-05-18T00:14:30.227Z,3.60
2023-05-18T00:15:02.380Z,3.33
2023-05-18T00:15:34.105Z,3.15
2023-05-18T00:16:07.044Z,3.03
2023-05-18T00:16:38.761Z,2.85
2023-05-18T00:17:10.499Z,3.05
2023-05-18T00:17:42.735Z,2.83
2023-05-18T00:18:14.504Z,2.93
2023-05-18T00:18:46.337Z,3.20
2023-05-18T00:19:18.161Z,3.03
2023-05-18T00:19:50.510Z,3.00
2023-05-18T00:20:22.521Z,2.97
2023-05-18T00:21:00.780Z,2.92
2023-05-18T00:21:33.750Z,2.92
2023-05-18T00:22:07.886Z,2.88
2023-05-18T00:22:42.693Z,3.22
2023-05-18T00:23:16.457Z,2.78
2023-05-18T00:23:50.509Z,3.00
2023-05-18T00:24:22.303Z,3.08
2023-05-18T00:24:53.967Z,3.00
2023-05-18T00:25:25.724Z,2.83
2023-05-18T00:25:58.417Z,2.97
2023-05-18T00:26:30.244Z,2.80
2023-05-18T00:27:02.035Z,3.03
2023-05-18T00:27:33.672Z,3.03
2023-05-18T00:28:05.314Z,2.92
2023-05-18T00:28:37.008Z,3.30
2023-05-18T00:29:09.567Z,2.80
2023-05-18T00:29:41.446Z,2.75
2023-05-18T00:30:13.877Z,3.10
2023-05-18T00:30:45.744Z,2.95
2023-05-18T00:31:17.665Z,2.50
2023-05-18T00:31:49.526Z,3.22
2023-05-18T00:32:21.350Z,3.25
2023-05-18T00:32:53.144Z,2.63
2023-05-18T00:33:24.846Z,3.17
2023-05-18T00:33:56.660Z,2.85
2023-05-18T00:34:28.553Z,2.93
2023-05-18T00:35:00.294Z,2.80
2023-05-18T00:35:32.269Z,2.50
2023-05-18T00:36:04.322Z,2.70
2023-05-18T00:36:37.347Z,2.88
2023-05-18T00:37:09.103Z,2.63
2023-05-18T00:37:40.878Z,2.70
2023-05-18T00:38:12.587Z,2.58
2023-05-18T00:38:44.214Z,2.53
2023-05-18T00:39:15.888Z,3.15
2023-05-18T00:39:47.504Z,2.88
2023-05-18T00:40:20.186Z,2.95
2023-05-18T00:40:51.816Z,2.50
2023-05-18T00:41:23.830Z,2.78
2023-05-18T00:41:55.524Z,2.63
2023-05-18T00:42:27.224Z,2.85
2023-05-18T00:42:59.046Z,2.95
2023-05-18T00:43:31.205Z,2.85
2023-05-18T00:44:04.990Z,2.90
2023-05-18T00:44:37.006Z,2.50
2023-05-18T00:45:09.014Z,2.83
2023-05-18T00:45:40.937Z,2.88
2023-05-18T00:46:12.831Z,3.00
2023-05-18T00:46:44.693Z,2.90
2023-05-18T00:47:18.531Z,2.97
2023-05-18T00:47:50.279Z,2.88
2023-05-18T00:48:21.979Z,3.03
2023-05-18T00:48:55.678Z,3.00
2023-05-18T00:49:27.627Z,2.90
2023-05-18T00:49:59.455Z,2.80
2023-05-18T00:50:32.151Z,2.83
2023-05-18T00:51:05.246Z,2.78
2023-05-18T00:51:37.762Z,3.05
2023-05-18T00:52:09.661Z,2.78
2023-05-18T00:52:41.926Z,2.92
2023-05-18T00:53:13.601Z,2.78
2023-05-18T00:53:45.853Z,2.83
2023-05-18T00:54:17.675Z,2.75
2023-05-18T00:54:49.572Z,3.08
2023-05-18T00:55:21.391Z,2.72
2023-05-18T00:55:53.676Z,3.27
2023-05-18T00:56:26.520Z,2.90
2023-05-18T00:57:02.095Z,2.92
2023-05-18T00:57:33.808Z,2.88
2023-05-18T00:58:05.725Z,3.03
2023-05-18T00:58:39.108Z,3.00
2023-05-18T00:59:11.925Z,3.13
2023-05-18T00:59:44.637Z,2.88
2023-05-18T01:00:16.663Z,3.22
2023-05-18T01:00:48.734Z,2.90
2023-05-18T01:01:24.561Z,3.20
2023-05-18T01:01:56.441Z,3.03
2023-05-18T01:02:30.651Z,3.08
2023-05-18T01:03:02.650Z,2.60
2023-05-18T01:03:34.605Z,3.50
2023-05-18T01:04:06.478Z,2.80
2023-05-18T01:04:38.220Z,3.08
2023-05-18T01:05:11.248Z,2.72
2023-05-18T01:05:42.961Z,3.00
2023-05-18T01:06:14.950Z,3.10
2023-05-18T01:06:47.337Z,3.43
2023-05-18T01:07:23.245Z,2.75
2023-05-18T01:07:56.663Z,2.97
2023-05-18T01:08:28.439Z,2.95
2023-05-18T01:09:02.670Z,3.05
2023-05-18T01:09:35.159Z,2.60
2023-05-18T01:10:07.575Z,2.80
2023-05-18T01:10:43.626Z,3.03
2023-05-18T01:11:25.121Z,3.05
2023-05-18T01:12:15.183Z,3.00
2023-05-18T01:12:58.933Z,2.70
2023-05-18T01:13:47.294Z,2.55
2023-05-18T01:14:36.658Z,3.30
2023-05-18T01:15:10.122Z,2.80
2023-05-18T01:15:44.588Z,3.17
2023-05-18T01:16:21.939Z,2.80
2023-05-18T01:16:56.658Z,3.13
2023-05-18T01:18:05.447Z,2.80
2023-05-18T01:18:47.155Z,3.17
2023-05-18T01:20:07.452Z,3.10
2023-05-18T01:20:52.926Z,3.42
2023-05-18T01:21:43.093Z,2.92
2023-05-18T01:22:56.529Z,3.15
2023-05-18T01:23:52.417Z,3.17
2023-05-18T01:24:36.080Z,2.85
2023-05-18T01:25:17.571Z,2.90
2023-05-18T01:25:55.395Z,3.00
2023-05-18T01:26:37.638Z,2.95
2023-05-18T01:27:10.245Z,2.97
2023-05-18T01:27:46.484Z,3.20
2023-05-18T01:28:21.282Z,3.13
2023-05-18T01:28:54.915Z,2.92
2023-05-18T01:29:30.403Z,3.30
2023-05-18T01:30:03.381Z,3.20
2023-05-18T01:30:40.070Z,3.47
2023-05-18T01:31:13.456Z,3.47
2023-05-18T01:31:45.388Z,3.47
2023-05-18T01:32:20.905Z,3.45
2023-05-18T01:32:52.719Z,3.35
2023-05-18T01:33:25.402Z,3.10
2023-05-18T01:33:57.069Z,3.90
2023-05-18T01:34:28.737Z,3.58
2023-05-18T01:35:00.557Z,3.78
2023-05-18T01:35:32.545Z,3.65
2023-05-18T01:36:04.642Z,3.53
2023-05-18T01:36:36.659Z,3.53
2023-05-18T01:37:08.441Z,3.30
2023-05-18T01:37:40.642Z,3.45
2023-05-18T01:38:12.404Z,3.47
2023-05-18T01:38:45.606Z,3.55
2023-05-18T01:39:17.623Z,3.60
2023-05-18T01:39:49.363Z,3.63
2023-05-18T01:40:21.375Z,3.30
2023-05-18T01:41:08.189Z,2.92
2023-05-18T01:41:46.844Z,3.35
2023-05-18T01:42:26.625Z,3.42
2023-05-18T01:43:05.234Z,3.45
2023-05-18T01:43:41.320Z,3.60
2023-05-18T01:44:19.578Z,3.50
2023-05-18T01:44:55.252Z,3.40
2023-05-18T01:45:30.645Z,3.50
2023-05-18T01:46:28.101Z,3.47
2023-05-18T01:47:03.424Z,3.00
2023-05-18T01:47:38.460Z,3.85
2023-05-18T01:48:12.087Z,3.13
2023-05-18T01:48:49.334Z,3.50
2023-05-18T01:49:28.433Z,3.17
2023-05-18T01:50:03.092Z,3.28
2023-05-18T01:50:40.262Z,3.30
2023-05-18T01:51:15.209Z,3.30
2023-05-18T01:51:48.728Z,3.30
2023-05-18T01:52:32.292Z,3.50
2023-05-18T01:53:14.820Z,4.05
2023-05-18T01:53:55.208Z,3.38
2023-05-18T01:54:27.370Z,3.45
2023-05-18T01:55:03.546Z,3.28
2023-05-18T01:55:36.951Z,3.63
2023-05-18T01:56:10.832Z,2.97
2023-05-18T01:56:43.996Z,3.88
2023-05-18T01:57:16.860Z,3.20
2023-05-18T01:57:51.634Z,4.00
2023-05-18T01:58:24.245Z,3.63
2023-05-18T01:58:56.350Z,3.38
2023-05-18T01:59:28.874Z,3.90
2023-05-18T02:00:01.209Z,3.80
2023-05-18T02:00:33.247Z,3.90
2023-05-18T02:01:05.087Z,3.60
2023-05-18T02:01:37.092Z,4.00
2023-05-18T02:02:08.916Z,3.88
2023-05-18T02:02:41.417Z,3.50
2023-05-18T02:03:14.537Z,3.58
2023-05-18T02:03:46.789Z,3.70
2023-05-18T02:04:18.788Z,3.80
2023-05-18T02:04:50.563Z,3.80
2023-05-18T02:05:22.257Z,3.90
2023-05-18T02:05:53.933Z,3.35
2023-05-18T02:06:25.751Z,3.78
2023-05-18T02:06:57.914Z,3.63
2023-05-18T02:07:29.576Z,3.83
2023-05-18T02:08:01.250Z,4.15
2023-05-18T02:08:33.831Z,4.28
2023-05-18T02:09:05.795Z,3.28
2023-05-18T02:09:37.464Z,3.83
2023-05-18T02:10:09.620Z,3.95
2023-05-18T02:10:41.370Z,3.80
2023-05-18T02:11:13.183Z,4.20
2023-05-18T02:11:44.916Z,4.05
2023-05-18T02:12:16.995Z,3.97
2023-05-18T02:12:52.684Z,3.67
2023-05-18T02:13:24.393Z,4.05
2023-05-18T02:13:56.305Z,3.67
2023-05-18T02:14:28.065Z,3.65
2023-05-18T02:15:01.288Z,4.00
2023-05-18T02:15:33.049Z,3.83
2023-05-18T02:16:05.040Z,4.60
2023-05-18T02:16:36.769Z,3.72
2023-05-18T02:17:08.597Z,3.60
2023-05-18T02:17:40.458Z,4.05
2023-05-18T02:18:12.204Z,3.42
2023-05-18T02:18:44.891Z,3.55
2023-05-18T02:19:17.533Z,4.13
2023-05-18T02:19:49.384Z,3.75
2023-05-18T02:20:21.623Z,4.03
2023-05-18T02:21:02.775Z,3.72
2023-05-18T02:21:36.141Z,3.92
2023-05-18T02:22:08.304Z,3.70
2023-05-18T02:22:39.969Z,3.33
2023-05-18T02:23:11.597Z,3.78
2023-05-18T02:23:43.291Z,4.25
2023-05-18T02:24:14.970Z,3.80
2023-05-18T02:24:46.707Z,4.20
2023-05-18T02:25:19.187Z,4.10
2023-05-18T02:25:51.092Z,4.05
2023-05-18T02:26:22.763Z,4.80
2023-05-18T02:26:54.555Z,4.65
2023-05-18T02:27:27.142Z,4.47
2023-05-18T02:27:58.792Z,4.50
2023-05-18T02:28:30.504Z,3.65
2023-05-18T02:29:02.224Z,3.83
2023-05-18T02:29:34.074Z,4.13
2023-05-18T02:30:08.536Z,4.03
2023-05-18T02:30:40.230Z,4.13
2023-05-18T02:31:12.389Z,4.28
2023-05-18T02:31:44.345Z,3.60
2023-05-18T02:32:16.853Z,4.10
2023-05-18T02:32:49.335Z,4.28
2023-05-18T02:33:26.259Z,3.85
2023-05-18T02:33:58.603Z,3.80
2023-05-18T02:34:32.413Z,4.40
2023-05-18T02:35:07.078Z,4.10
2023-05-18T02:35:38.891Z,4.17
2023-05-18T02:36:13.079Z,4.28
2023-05-18T02:36:46.300Z,4.30
2023-05-18T02:37:17.974Z,4.10
2023-05-18T02:37:50.217Z,4.18
2023-05-18T02:38:21.875Z,4.22
2023-05-18T02:38:53.993Z,4.35
2023-05-18T02:39:25.654Z,4.13
2023-05-18T02:39:57.307Z,4.40
2023-05-18T02:40:29.090Z,4.30
2023-05-18T02:41:00.740Z,4.43
2023-05-18T02:41:35.903Z,4.10
2023-05-18T02:42:07.946Z,4.60
2023-05-18T02:42:40.058Z,4.13
2023-05-18T02:43:11.811Z,4.85
2023-05-18T02:43:43.512Z,4.30
2023-05-18T02:44:15.176Z,3.95
2023-05-18T02:44:46.873Z,4.53
2023-05-18T02:45:20.884Z,4.47
2023-05-18T02:45:52.875Z,4.45
2023-05-18T02:46:25.105Z,4.30
2023-05-18T02:46:57.195Z,4.00
2023-05-18T02:47:29.261Z,4.07
2023-05-18T02:48:01.031Z,4.47
2023-05-18T02:48:32.798Z,4.60
2023-05-18T02:49:04.826Z,4.82
2023-05-18T02:49:36.511Z,4.20
2023-05-18T02:50:08.477Z,4.38
2023-05-18T02:50:40.173Z,4.60
2023-05-18T02:51:12.479Z,4.10
2023-05-18T02:51:44.176Z,4.40
2023-05-18T02:52:16.468Z,4.28
2023-05-18T02:52:49.974Z,4.68
2023-05-18T02:53:22.382Z,4.28
2023-05-18T02:53:54.019Z,4.55
2023-05-18T02:54:26.079Z,4.57
2023-05-18T02:54:57.774Z,4.38
2023-05-18T02:55:30.219Z,4.45
2023-05-18T02:56:04.059Z,4.53
2023-05-18T02:56:35.742Z,4.65
2023-05-18T02:57:07.623Z,4.95
2023-05-18T02:57:39.593Z,4.35
2023-05-18T02:58:13.724Z,4.50
2023-05-18T02:58:45.397Z,4.75
2023-05-18T02:59:17.259Z,4.70
2023-05-18T02:59:49.041Z,4.70
2023-05-18T03:00:22.457Z,4.93
2023-05-18T03:00:55.646Z,4.68
2023-05-18T03:01:27.710Z,4.85
2023-05-18T03:01:59.470Z,4.53
2023-05-18T03:02:31.681Z,4.67
2023-05-18T03:03:04.418Z,4.32
2023-05-18T03:03:36.137Z,5.07
2023-05-18T03:04:07.965Z,4.95
2023-05-18T03:04:39.712Z,4.60
2023-05-18T03:05:11.478Z,4.60
2023-05-18T03:05:43.637Z,4.72
2023-05-18T03:06:16.263Z,4.30
2023-05-18T03:06:52.935Z,4.60
2023-05-18T03:07:24.786Z,4.47
2023-05-18T03:07:56.580Z,4.57
2023-05-18T03:08:29.045Z,4.88
2023-05-18T03:09:00.728Z,4.80
2023-05-18T03:09:32.474Z,4.70
2023-05-18T03:10:04.566Z,4.53
2023-05-18T03:10:37.459Z,4.72
2023-05-18T03:11:09.158Z,4.78
2023-05-18T03:11:40.850Z,4.63
2023-05-18T03:12:12.562Z,4.47
2023-05-18T03:12:44.264Z,4.63
2023-05-18T03:13:15.984Z,4.90
2023-05-18T03:13:48.450Z,4.68
2023-05-18T03:14:20.109Z,4.60
2023-05-18T03:14:51.848Z,4.93
2023-05-18T03:15:23.570Z,4.72
2023-05-18T03:15:56.715Z,4.45
2023-05-18T03:16:28.893Z,4.93
2023-05-18T03:17:01.623Z,5.07
2023-05-18T03:17:33.903Z,5.03
2023-05-18T03:18:05.877Z,4.78
2023-05-18T03:18:37.690Z,5.00
2023-05-18T03:19:09.403Z,4.63
2023-05-18T03:19:41.568Z,4.75
2023-05-18T03:20:15.449Z,5.25
2023-05-18T03:20:47.238Z,5.03
2023-05-18T03:21:20.269Z,5.00
2023-05-18T03:21:52.012Z,5.20
2023-05-18T03:22:23.681Z,4.63
2023-05-18T03:22:55.393Z,4.38
2023-05-18T03:23:27.425Z,4.82
2023-05-18T03:24:00.228Z,5.57
2023-05-18T03:24:40.837Z,4.28
2023-05-18T03:25:12.518Z,4.95
2023-05-18T03:25:44.911Z,4.43
2023-05-18T03:26:16.928Z,4.22
2023-05-18T03:26:48.580Z,4.53
2023-05-18T03:27:25.516Z,4.50
2023-05-18T03:27:57.282Z,4.38
2023-05-18T03:28:31.939Z,4.53
2023-05-18T03:29:03.593Z,3.92
2023-05-18T03:29:35.312Z,4.63
2023-05-18T03:30:08.311Z,4.28
2023-05-18T03:30:39.958Z,4.32
2023-05-18T03:31:11.782Z,5.13
2023-05-18T03:31:43.546Z,4.85
2023-05-18T03:32:15.362Z,4.53
2023-05-18T03:32:48.061Z,4.82
2023-05-18T03:33:19.755Z,4.68
2023-05-18T03:33:51.581Z,5.07
2023-05-18T03:34:23.251Z,4.30
2023-05-18T03:34:55.387Z,4.30
2023-05-18T03:35:27.137Z,4.78
2023-05-18T03:36:03.939Z,4.38
2023-05-18T03:36:35.867Z,4.75
2023-05-18T03:37:07.697Z,4.50
2023-05-18T03:37:39.487Z,4.70
2023-05-18T03:38:11.339Z,4.93
2023-05-18T03:38:46.022Z,4.78
2023-05-18T03:39:17.761Z,4.38
2023-05-18T03:39:50.044Z,4.85
2023-05-18T03:40:22.418Z,4.33
2023-05-18T03:40:55.394Z,4.50
2023-05-18T03:41:27.295Z,4.25
2023-05-18T03:41:58.911Z,4.43
2023-05-18T03:42:30.686Z,4.70
2023-05-18T03:43:02.475Z,4.63
2023-05-18T03:43:34.259Z,4.75
2023-05-18T03:44:06.283Z,4.80
2023-05-18T03:44:38.241Z,4.70
2023-05-18T03:45:10.797Z,4.50
2023-05-18T03:45:42.590Z,4.53
2023-05-18T03:46:14.262Z,4.53
2023-05-18T03:46:46.599Z,5.18
2023-05-18T03:47:18.856Z,5.28
2023-05-18T03:47:51.402Z,4.68
2023-05-18T03:48:24.487Z,4.57
2023-05-18T03:48:56.210Z,4.50
2023-05-18T03:49:29.872Z,4.40
2023-05-18T03:50:01.772Z,4.60
2023-05-18T03:50:33.904Z,4.40
2023-05-18T03:51:06.139Z,4.83
2023-05-18T03:51:37.826Z,4.32
2023-05-18T03:52:09.500Z,4.90
2023-05-18T03:52:44.594Z,4.68
2023-05-18T03:53:21.576Z,5.38
2023-05-18T03:53:53.328Z,5.18
2023-05-18T03:54:25.037Z,4.28
2023-05-18T03:54:57.060Z,4.68
2023-05-18T03:55:30.493Z,5.05
2023-05-18T03:56:02.512Z,4.97
2023-05-18T03:56:34.156Z,4.80
2023-05-18T03:57:06.008Z,5.28
2023-05-18T03:57:38.009Z,4.90
2023-05-18T03:58:09.734Z,5.38
2023-05-18T03:58:42.549Z,4.90
2023-05-18T03:59:14.932Z,4.78
2023-05-18T03:59:47.041Z,5.15
2023-05-18T04:00:19.066Z,5.18
2023-05-18T04:00:50.766Z,5.40
2023-05-18T04:01:23.986Z,4.72
2023-05-18T04:01:55.780Z,5.10
2023-05-18T04:02:27.777Z,5.18
2023-05-18T04:03:00.871Z,5.18
2023-05-18T04:03:34.814Z,5.00
2023-05-18T04:04:07.478Z,5.40
2023-05-18T04:04:46.195Z,5.20
2023-05-18T04:05:18.324Z,5.13
2023-05-18T04:05:50.223Z,5.32
2023-05-18T04:06:23.860Z,4.78
2023-05-18T04:06:55.895Z,4.80
2023-05-18T04:07:27.591Z,5.20
2023-05-18T04:07:59.484Z,5.55
2023-05-18T04:08:34.510Z,4.70
2023-05-18T04:09:06.935Z,5.00
2023-05-18T04:09:39.421Z,5.20
2023-05-18T04:10:12.612Z,5.43
2023-05-18T04:10:44.946Z,5.03
2023-05-18T04:11:16.627Z,5.70
2023-05-18T04:11:48.413Z,4.68
2023-05-18T04:12:20.052Z,4.68
2023-05-18T04:12:51.906Z,4.67
2023-05-18T04:13:23.564Z,5.30
2023-05-18T04:13:55.242Z,4.70
2023-05-18T04:14:28.316Z,5.03
2023-05-18T04:15:00.965Z,4.95
2023-05-18T04:15:33.919Z,5.20
2023-05-18T04:16:06.094Z,5.60
2023-05-18T04:16:37.916Z,5.03
2023-05-18T04:17:10.270Z,5.40
2023-05-18T04:17:45.855Z,5.00
2023-05-18T04:18:17.869Z,5.30
2023-05-18T04:18:50.166Z,5.63
2023-05-18T04:19:21.918Z,4.97
2023-05-18T04:19:53.680Z,4.63
2023-05-18T04:20:28.508Z,4.95
2023-05-18T04:21:00.632Z,4.70
2023-05-18T04:21:36.134Z,4.90
2023-05-18T04:22:08.149Z,5.10
2023-05-18T04:22:43.855Z,5.22
2023-05-18T04:23:15.922Z,5.05
2023-05-18T04:23:48.379Z,5.03
2023-05-18T04:24:21.419Z,5.03
2023-05-18T04:24:55.254Z,5.18
2023-05-18T04:25:30.426Z,5.28
2023-05-18T04:26:02.808Z,5.07
2023-05-18T04:26:36.678Z,5.13
2023-05-18T04:27:09.301Z,5.40
2023-05-18T04:27:42.060Z,4.97
2023-05-18T04:28:13.774Z,5.03
2023-05-18T04:28:47.332Z,4.80
2023-05-18T04:29:19.530Z,4.93
2023-05-18T04:29:52.113Z,4.75
2023-05-18T04:30:29.753Z,5.13
2023-05-18T04:31:02.006Z,4.97
2023-05-18T04:31:35.765Z,5.40
2023-05-18T04:32:08.248Z,4.72
2023-05-18T04:32:43.358Z,5.28
2023-05-18T04:33:16.436Z,5.10
2023-05-18T04:33:48.221Z,4.80
2023-05-18T04:34:19.906Z,4.72
2023-05-18T04:34:51.524Z,5.10
2023-05-18T04:35:23.202Z,5.03
2023-05-18T04:35:58.996Z,5.15
2023-05-18T04:36:31.041Z,4.97
2023-05-18T04:37:05.781Z,5.00
2023-05-18T04:37:40.424Z,4.50
2023-05-18T04:38:12.203Z,5.30
2023-05-18T04:38:44.388Z,4.65
2023-05-18T04:39:16.234Z,4.90
2023-05-18T04:39:47.889Z,4.85
2023-05-18T04:40:19.602Z,5.17
2023-05-18T04:40:51.882Z,5.18
2023-05-18T04:41:23.683Z,5.05
2023-05-18T04:41:58.568Z,4.70
2023-05-18T04:42:30.319Z,5.13
2023-05-18T04:43:02.121Z,4.70
2023-05-18T04:43:34.513Z,4.88
2023-05-18T04:44:06.405Z,4.72
2023-05-18T04:44:39.262Z,4.80
2023-05-18T04:45:15.983Z,4.47
2023-05-18T04:45:50.854Z,5.10
2023-05-18T04:46:23.374Z,4.60
2023-05-18T04:46:56.101Z,4.80
2023-05-18T04:47:30.273Z,5.00
2023-05-18T04:48:02.209Z,5.28
2023-05-18T04:48:33.930Z,5.05
2023-05-18T04:49:05.607Z,5.38
2023-05-18T04:49:37.656Z,4.82
2023-05-18T04:50:09.668Z,5.30
2023-05-18T04:50:42.089Z,5.07
2023-05-18T04:51:13.764Z,5.37
2023-05-18T04:51:47.049Z,4.75
2023-05-18T04:52:22.302Z,5.18
2023-05-18T04:52:57.862Z,5.03
2023-05-18T04:53:29.659Z,4.90
2023-05-18T04:54:03.337Z,5.35
2023-05-18T04:54:34.973Z,5.50
2023-05-18T04:55:10.931Z,5.30
2023-05-18T04:55:42.880Z,5.43
2023-05-18T04:56:15.097Z,4.88
2023-05-18T04:56:47.504Z,5.23
2023-05-18T04:57:19.244Z,4.97
2023-05-18T04:57:51.078Z,4.88
2023-05-18T04:58:22.895Z,4.97
2023-05-18T04:58:59.413Z,5.40
2023-05-18T04:59:31.080Z,4.97
2023-05-18T05:00:05.995Z,4.60
2023-05-18T05:00:37.879Z,4.47
2023-05-18T05:01:09.563Z,4.60
2023-05-18T05:01:41.372Z,4.80
2023-05-18T05:02:13.979Z,4.53
2023-05-18T05:02:46.421Z,5.00
2023-05-18T05:03:18.202Z,4.55
2023-05-18T05:03:50.001Z,5.13
2023-05-18T05:04:22.408Z,5.20
2023-05-18T05:04:54.156Z,4.70
2023-05-18T05:05:26.460Z,4.63
2023-05-18T05:05:58.080Z,4.32
2023-05-18T05:06:29.789Z,4.90
2023-05-18T05:07:01.701Z,4.72
2023-05-18T05:07:33.400Z,5.10
2023-05-18T05:08:06.846Z,5.00
2023-05-18T05:08:38.561Z,4.97
2023-05-18T05:09:10.237Z,4.93
2023-05-18T05:09:42.167Z,4.80
2023-05-18T05:10:13.901Z,5.15
2023-05-18T05:10:45.694Z,4.85
2023-05-18T05:11:17.567Z,4.97
2023-05-18T05:11:49.590Z,5.00
2023-05-18T05:12:21.230Z,5.30
2023-05-18T05:12:52.999Z,4.93
2023-05-18T05:13:24.722Z,4.53
2023-05-18T05:13:56.466Z,5.07
2023-05-18T05:14:28.131Z,4.68
2023-05-18T05:14:59.952Z,4.63
2023-05-18T05:15:31.800Z,4.97
2023-05-18T05:16:03.915Z,4.68
2023-05-18T05:16:36.208Z,5.43
2023-05-18T05:17:08.125Z,4.70
2023-05-18T05:17:39.890Z,4.70
2023-05-18T05:18:11.782Z,4.60
2023-05-18T05:18:45.836Z,4.80
2023-05-18T05:19:18.802Z,4.80
2023-05-18T05:19:50.730Z,4.50
2023-05-18T05:20:22.496Z,4.90
2023-05-18T05:20:54.905Z,4.60
2023-05-18T05:21:26.801Z,4.97
2023-05-18T05:21:58.493Z,5.03
2023-05-18T05:22:30.392Z,4.60
2023-05-18T05:23:02.242Z,4.95
2023-05-18T05:23:33.944Z,4.43
2023-05-18T05:24:06.236Z,4.82
2023-05-18T05:24:37.913Z,4.55
2023-05-18T05:25:09.844Z,4.63
2023-05-18T05:25:41.638Z,4.97
2023-05-18T05:26:13.356Z,4.88
2023-05-18T05:26:45.058Z,4.85
2023-05-18T05:27:16.795Z,4.60
2023-05-18T05:27:48.493Z,4.60
2023-05-18T05:28:20.230Z,5.03
2023-05-18T05:28:51.927Z,4.70
2023-05-18T05:29:23.544Z,4.03
2023-05-18T05:29:56.554Z,5.18
2023-05-18T05:30:28.258Z,4.38
2023-05-18T05:30:59.964Z,4.70
2023-05-18T05:31:32.097Z,4.40
2023-05-18T05:32:05.309Z,4.30
2023-05-18T05:32:37.207Z,4.80
2023-05-18T05:33:09.009Z,5.05
2023-05-18T05:33:41.148Z,5.22
2023-05-18T05:34:13.619Z,5.07
2023-05-18T05:34:47.099Z,4.95
2023-05-18T05:35:18.985Z,4.50
2023-05-18T05:35:50.746Z,5.00
2023-05-18T05:36:22.392Z,4.50
2023-05-18T05:36:54.194Z,4.93
2023-05-18T05:37:25.883Z,4.88
2023-05-18T05:37:57.566Z,4.72
2023-05-18T05:38:29.342Z,4.72
2023-05-18T05:39:01.098Z,4.80
2023-05-18T05:39:32.828Z,4.93
2023-05-18T05:40:06.669Z,4.57
2023-05-18T05:40:38.447Z,5.05
2023-05-18T05:41:10.165Z,4.40
2023-05-18T05:41:41.894Z,4.68
2023-05-18T05:42:13.845Z,4.95
2023-05-18T05:42:45.510Z,4.82
2023-05-18T05:43:17.262Z,5.00
2023-05-18T05:43:48.906Z,5.03
2023-05-18T05:44:20.632Z,5.00
2023-05-18T05:44:52.343Z,5.03
2023-05-18T05:45:24.013Z,4.93
2023-05-18T05:45:55.680Z,4.72
2023-05-18T05:46:27.482Z,4.63
2023-05-18T05:46:59.261Z,4.95
2023-05-18T05:47:31.734Z,4.70
2023-05-18T05:48:03.589Z,5.05
2023-05-18T05:48:35.319Z,5.18
2023-05-18T05:49:07.004Z,4.75
2023-05-18T05:49:38.727Z,4.72
2023-05-18T05:50:11.010Z,4.70
2023-05-18T05:50:42.844Z,4.80
2023-05-18T05:51:14.486Z,5.50
2023-05-18T05:51:46.144Z,4.90
2023-05-18T05:52:17.802Z,4.82
2023-05-18T05:52:49.475Z,5.15
2023-05-18T05:53:23.504Z,5.47
2023-05-18T05:53:55.228Z,5.03
2023-05-18T05:54:26.914Z,5.15
2023-05-18T05:55:00.550Z,4.95
2023-05-18T05:55:32.476Z,4.60
2023-05-18T05:56:04.480Z,5.13
2023-05-18T05:56:36.100Z,4.57
2023-05-18T05:57:07.894Z,4.53
2023-05-18T05:57:42.963Z,4.85
2023-05-18T05:58:14.668Z,4.97
2023-05-18T05:58:46.837Z,4.68
2023-05-18T05:59:18.898Z,5.13
2023-05-18T05:59:51.327Z,5.22
2023-05-18T06:00:24.335Z,4.80
2023-05-18T06:00:56.220Z,5.03
2023-05-18T06:01:29.250Z,4.47
2023-05-18T06:02:00.896Z,4.55
2023-05-18T06:02:34.323Z,4.80
2023-05-18T06:03:06.540Z,4.88
2023-05-18T06:03:38.911Z,4.78
2023-05-18T06:04:12.634Z,5.00
2023-05-18T06:04:44.656Z,4.80
2023-05-18T06:05:16.381Z,5.00
2023-05-18T06:05:48.162Z,4.95
2023-05-18T06:06:20.127Z,4.97
2023-05-18T06:06:51.810Z,5.15
2023-05-18T06:07:24.720Z,4.72
2023-05-18T06:07:56.990Z,4.95
2023-05-18T06:08:28.658Z,4.20
2023-05-18T06:09:00.311Z,4.80
2023-05-18T06:09:31.995Z,4.53
2023-05-18T06:10:03.895Z,4.68
2023-05-18T06:10:35.611Z,4.70
2023-05-18T06:11:09.292Z,5.05
2023-05-18T06:11:42.687Z,5.07
2023-05-18T06:12:14.600Z,4.75
2023-05-18T06:12:46.252Z,4.60
2023-05-18T06:13:17.951Z,4.38
2023-05-18T06:13:49.675Z,4.72
2023-05-18T06:14:21.558Z,4.60
2023-05-18T06:14:57.635Z,4.68
2023-05-18T06:15:29.609Z,4.57
2023-05-18T06:16:01.637Z,4.72
2023-05-18T06:16:33.583Z,4.53
2023-05-18T06:17:06.161Z,4.80
2023-05-18T06:17:39.223Z,4.60
2023-05-18T06:18:13.385Z,4.57
2023-05-18T06:18:45.274Z,4.95
2023-05-18T06:19:17.187Z,4.88
2023-05-18T06:19:48.964Z,4.35
2023-05-18T06:20:20.748Z,4.68
2023-05-18T06:20:52.565Z,5.00
2023-05-18T06:21:24.293Z,4.78
2023-05-18T06:21:57.191Z,4.43
2023-05-18T06:22:28.889Z,4.37
2023-05-18T06:23:01.129Z,4.72
2023-05-18T06:23:32.808Z,4.45
2023-05-18T06:24:05.258Z,4.93
2023-05-18T06:24:37.127Z,4.47
2023-05-18T06:25:10.869Z,4.30
2023-05-18T06:25:42.661Z,4.07
2023-05-18T06:26:14.740Z,4.70
2023-05-18T06:26:46.412Z,4.97
2023-05-18T06:27:19.379Z,4.50
2023-05-18T06:27:52.076Z,4.30
2023-05-18T06:28:23.764Z,4.88
2023-05-18T06:28:55.548Z,4.32
2023-05-18T06:29:27.598Z,4.45
2023-05-18T06:29:59.288Z,4.40
2023-05-18T06:30:30.977Z,4.90
2023-05-18T06:31:02.784Z,4.88
2023-05-18T06:31:35.088Z,4.85
2023-05-18T06:32:07.441Z,5.15
2023-05-18T06:32:39.336Z,4.80
2023-05-18T06:33:11.189Z,5.50
2023-05-18T06:33:43.037Z,4.78
2023-05-18T06:34:14.672Z,5.05
2023-05-18T06:34:47.416Z,4.80
2023-05-18T06:35:19.160Z,4.93
2023-05-18T06:35:51.392Z,4.95
2023-05-18T06:36:23.219Z,4.75
2023-05-18T06:36:55.226Z,5.07
2023-05-18T06:37:26.887Z,5.35
2023-05-18T06:37:58.541Z,4.80
2023-05-18T06:38:30.580Z,5.20
2023-05-18T06:39:02.212Z,4.88
2023-05-18T06:39:33.862Z,4.90
2023-05-18T06:40:07.478Z,4.90
2023-05-18T06:40:39.312Z,5.07
2023-05-18T06:41:11.329Z,4.68
2023-05-18T06:41:45.113Z,5.00
2023-05-18T06:42:16.873Z,4.80
2023-05-18T06:42:48.538Z,4.88
2023-05-18T06:43:20.300Z,4.80
2023-05-18T06:43:51.998Z,4.87
2023-05-18T06:44:23.656Z,4.90
2023-05-18T06:44:55.317Z,4.50
2023-05-18T06:45:27.147Z,4.43
2023-05-18T06:45:58.877Z,4.97
2023-05-18T06:46:30.737Z,4.85
2023-05-18T06:47:02.635Z,5.30
2023-05-18T06:47:34.336Z,4.57
2023-05-18T06:48:06.437Z,4.70
2023-05-18T06:48:38.793Z,4.80
2023-05-18T06:49:10.442Z,4.57
2023-05-18T06:49:42.402Z,4.45
2023-05-18T06:50:14.170Z,5.25
2023-05-18T06:50:45.813Z,4.60
2023-05-18T06:51:17.701Z,5.03
2023-05-18T06:51:49.476Z,4.68
2023-05-18T06:52:21.224Z,5.50
2023-05-18T06:52:53.504Z,4.97
2023-05-18T06:53:25.206Z,4.82
2023-05-18T06:53:57.246Z,5.15
2023-05-18T06:54:29.562Z,4.90
2023-05-18T06:55:04.406Z,4.82
2023-05-18T06:55:36.165Z,4.85
2023-05-18T06:56:08.099Z,5.13
2023-05-18T06:56:39.796Z,4.63
2023-05-18T06:57:11.859Z,4.90
2023-05-18T06:57:43.605Z,4.88
2023-05-18T06:58:15.309Z,5.07
2023-05-18T06:58:47.031Z,4.40
2023-05-18T06:59:18.695Z,5.10
2023-05-18T06:59:53.751Z,4.87
2023-05-18T07:00:25.615Z,5.45
2023-05-18T07:00:58.100Z,4.95
2023-05-18T07:01:29.787Z,4.95
2023-05-18T07:02:01.642Z,4.65
2023-05-18T07:02:33.369Z,4.40
2023-05-18T07:03:05.325Z,4.85
2023-05-18T07:03:37.692Z,4.95
2023-05-18T07:04:09.427Z,4.57
2023-05-18T07:04:43.098Z,4.68
2023-05-18T07:05:15.160Z,5.00
2023-05-18T07:05:46.776Z,5.13
2023-05-18T07:06:18.864Z,5.05
2023-05-18T07:06:51.528Z,4.78
2023-05-18T07:07:23.205Z,4.82
2023-05-18T07:07:55.120Z,5.10
2023-05-18T07:08:27.041Z,4.90
2023-05-18T07:08:58.677Z,4.43
2023-05-18T07:09:30.348Z,4.72
2023-05-18T07:10:03.805Z,5.15
2023-05-18T07:10:35.985Z,4.70
2023-05-18T07:11:07.713Z,4.43
2023-05-18T07:11:40.847Z,4.20
2023-05-18T07:12:12.934Z,4.68
2023-05-18T07:12:44.578Z,4.57
2023-05-18T07:13:16.311Z,4.78
2023-05-18T07:13:47.968Z,5.03
2023-05-18T07:14:19.729Z,4.50
2023-05-18T07:14:51.905Z,5.15
2023-05-18T07:15:26.070Z,4.75
2023-05-18T07:15:58.212Z,4.87
2023-05-18T07:16:30.000Z,4.72
2023-05-18T07:17:01.704Z,5.20
2023-05-18T07:17:33.686Z,4.75
2023-05-18T07:18:05.650Z,4.72
2023-05-18T07:18:38.594Z,4.63